Time;durP1;ratioP1;P1;durP2;ratioP2;P2;SDS_P1;SDS_P2;PMS_P1;PMS_P2;Temp;Humidity;BMP_temperature;BMP_pressure;BME280_temperature;BME280_humidity;BME280_pressure;Samples;Min_cycle;Max_cycle;Signal;HPM_P1;HPM_P2
2022/06/22 00:02:14;;;;;;;3.90;3.50;;;23.90;73.80;;;;;;5034185;28;20183;-76
2022/06/22 00:04:55;;;;;;;3.60;3.40;;;23.90;73.80;;;;;;5051162;28;20183;-75
2022/06/22 00:07:24;;;;;;;3.85;3.50;;;23.90;73.80;;;;;;5018035;28;20179;-75
2022/06/22 00:10:05;;;;;;;4.00;3.70;;;23.90;73.90;;;;;;5034779;28;20242;-75
2022/06/22 00:12:32;;;;;;;3.90;3.58;;;23.90;74.00;;;;;;5018313;28;20655;-75
2022/06/22 00:15:03;;;;;;;3.50;3.30;;;23.90;73.80;;;;;;5034818;28;20643;-75
2022/06/22 00:17:38;;;;;;;3.58;3.28;;;23.90;73.80;;;;;;5050991;28;20187;-75
2022/06/22 00:20:27;;;;;;;3.40;3.20;;;23.90;74.00;;;;;;5033217;28;20215;-76
2022/06/22 00:22:58;;;;;;;4.13;3.83;;;23.90;73.80;;;;;;5017664;28;20175;-76
2022/06/22 00:25:38;;;;;;;3.78;3.47;;;23.90;73.90;;;;;;5033750;28;20187;-76
2022/06/22 00:29:05;;;;;;;3.40;3.20;;;23.90;73.90;;;;;;5033725;28;20171;-76
2022/06/22 00:31:49;;;;;;;4.07;3.75;;;23.90;74.00;;;;;;5016689;28;20190;-76
2022/06/22 00:34:31;;;;;;;3.67;3.45;;;23.90;74.00;;;;;;5033601;28;20203;-76
2022/06/22 00:37:19;;;;;;;3.70;3.50;;;23.90;74.00;;;;;;5050467;28;20229;-76
2022/06/22 00:39:56;;;;;;;3.58;3.28;;;23.90;73.90;;;;;;5033344;28;20230;-75
2022/06/22 00:42:25;;;;;;;3.55;3.25;;;23.90;74.00;;;;;;5049916;28;20266;-76
2022/06/22 00:44:59;;;;;;;3.55;3.20;;;23.90;74.00;;;;;;5050325;28;20268;-75
2022/06/22 00:47:43;;;;;;;3.80;3.50;;;23.90;74.10;;;;;;5033522;28;20182;-76
2022/06/22 00:50:36;;;;;;;4.35;3.80;;;23.90;74.10;;;;;;5049439;28;20253;-76
2022/06/22 00:53:12;;;;;;;3.72;3.45;;;23.90;74.10;;;;;;5033431;28;20180;-76
2022/06/22 00:55:54;;;;;;;3.95;3.55;;;23.90;74.10;;;;;;5049991;28;20198;-76
2022/06/22 00:59:05;;;;;;;4.10;3.80;;;23.90;74.10;;;;;;5049751;28;20183;-76
2022/06/22 01:01:58;;;;;;;3.60;3.40;;;23.90;74.10;;;;;;5006716;28;20682;-76
2022/06/22 01:04:52;;;;;;;4.50;3.75;;;23.90;74.10;;;;;;5032955;28;20662;-76
2022/06/22 01:07:44;;;;;;;3.92;3.63;;;23.90;74.10;;;;;;5049486;28;20241;-76
2022/06/22 01:10:32;;;;;;;3.70;3.45;;;23.90;74.10;;;;;;5033509;28;20410;-76
2022/06/22 01:13:07;;;;;;;4.45;3.15;;;23.90;74.20;;;;;;5049515;28;20183;-76
2022/06/22 01:15:58;;;;;;;3.92;3.63;;;23.90;74.10;;;;;;5032711;28;20265;-76
2022/06/22 01:18:48;;;;;;;3.40;3.10;;;23.90;74.20;;;;;;5049222;28;20171;-76
2022/06/22 01:21:20;;;;;;;3.90;3.60;;;23.90;74.30;;;;;;5015770;28;20183;-76
2022/06/22 01:24:07;;;;;;;3.65;3.35;;;23.90;74.20;;;;;;5016523;28;20278;-76
2022/06/22 01:27:07;;;;;;;3.53;3.33;;;23.90;74.20;;;;;;5016247;28;20245;-76
2022/06/22 01:29:33;;;;;;;3.60;3.30;;;23.80;74.20;;;;;;5033825;28;20626;-75
2022/06/22 01:32:05;;;;;;;3.67;3.38;;;23.90;74.10;;;;;;5032153;28;20188;-76
2022/06/22 01:34:37;;;;;;;3.17;2.97;;;23.90;74.20;;;;;;5049183;28;20194;-76
2022/06/22 01:37:06;;;;;;;3.63;3.33;;;23.90;74.30;;;;;;5032635;28;20266;-76
2022/06/22 01:39:33;;;;;;;3.47;3.20;;;23.90;74.40;;;;;;5015927;28;20215;-76
2022/06/22 01:42:23;;;;;;;3.63;3.33;;;23.90;74.30;;;;;;5048654;28;20670;-77
2022/06/22 01:45:00;;;;;;;3.80;3.50;;;23.90;74.30;;;;;;5032635;28;20649;-76
2022/06/22 01:47:48;;;;;;;3.22;3.03;;;23.90;74.20;;;;;;5048822;28;20225;-76
2022/06/22 01:50:22;;;;;;;4.05;3.75;;;23.90;74.30;;;;;;5031755;28;20581;-75
2022/06/22 01:53:12;;;;;;;4.05;3.20;;;23.80;74.30;;;;;;5015740;28;20194;-76
2022/06/22 01:55:57;;;;;;;3.63;3.33;;;23.90;74.30;;;;;;5032418;28;20274;-76
2022/06/22 01:58:45;;;;;;;3.53;3.22;;;23.90;74.40;;;;;;5015847;28;20187;-76
2022/06/22 02:01:33;;;;;;;3.83;3.53;;;23.90;74.50;;;;;;5031364;28;20205;-76
2022/06/22 02:04:42;;;;;;;3.97;3.60;;;23.90;74.40;;;;;;5015526;28;20218;-76
2022/06/22 02:07:44;;;;;;;3.58;3.28;;;23.90;74.40;;;;;;4999548;28;20222;-76
2022/06/22 02:10:34;;;;;;;3.72;3.42;;;23.90;74.40;;;;;;5032848;28;20211;-75
2022/06/22 02:13:34;;;;;;;3.83;3.53;;;23.90;74.40;;;;;;5031477;28;20192;-76
2022/06/22 02:16:30;;;;;;;3.60;3.30;;;23.90;74.50;;;;;;5048385;28;20175;-76
2022/06/22 02:18:58;;;;;;;3.58;3.33;;;23.80;74.40;;;;;;5031707;28;20745;-76
2022/06/22 02:21:52;;;;;;;3.72;3.42;;;23.90;74.60;;;;;;5047690;28;20183;-76
2022/06/22 02:24:33;;;;;;;3.83;3.13;;;23.80;74.60;;;;;;5048430;28;20180;-76
2022/06/22 02:27:06;;;;;;;3.70;3.35;;;23.90;74.50;;;;;;5031459;28;20650;-76
2022/06/22 02:29:49;;;;;;;3.83;3.50;;;23.90;74.60;;;;;;5015262;28;20199;-76
2022/06/22 02:32:33;;;;;;;4.35;3.42;;;23.90;74.60;;;;;;5030276;28;20195;-77
2022/06/22 02:35:00;;;;;;;3.97;3.60;;;23.80;74.60;;;;;;5047905;28;20179;-76
2022/06/22 02:37:34;;;;;;;3.75;3.45;;;23.90;74.50;;;;;;5032599;28;20176;-76
2022/06/22 02:40:08;;;;;;;3.53;3.20;;;23.90;74.60;;;;;;5031275;28;20218;-76
2022/06/22 02:45:19;;;;;;;3.65;3.20;;;23.80;74.70;;;;;;5031719;28;20221;-76
2022/06/22 02:47:56;;;;;;;3.90;3.50;;;23.80;74.90;;;;;;5031166;28;20230;-76
2022/06/22 02:50:44;;;;;;;3.42;3.22;;;23.80;74.70;;;;;;5028013;28;20210;-75
2022/06/22 02:53:23;;;;;;;4.07;3.67;;;23.90;74.70;;;;;;5025568;28;20194;-76
2022/06/22 02:55:51;;;;;;;3.70;3.40;;;23.80;74.70;;;;;;5031165;28;20654;-76
2022/06/22 02:58:34;;;;;;;3.38;3.15;;;23.80;74.60;;;;;;5031268;28;20247;-75
2022/06/22 03:01:07;;;;;;;3.88;3.58;;;23.80;74.70;;;;;;5012444;28;20186;-76
2022/06/22 03:03:35;;;;;;;3.95;3.35;;;23.90;74.80;;;;;;5011730;28;20180;-75
2022/06/22 03:06:02;;;;;;;3.60;3.30;;;23.90;74.90;;;;;;5011586;28;20239;-76
2022/06/22 03:08:29;;;;;;;3.85;3.55;;;23.90;75.10;;;;;;5011225;28;20187;-76
2022/06/22 03:11:03;;;;;;;3.40;3.10;;;23.80;74.90;;;;;;5011006;28;20180;-76
2022/06/22 03:13:47;;;;;;;3.33;3.03;;;23.80;74.80;;;;;;5011265;28;20187;-76
2022/06/22 03:16:29;;;;;;;4.50;3.55;;;23.80;74.70;;;;;;5011624;28;20183;-76
2022/06/22 03:19:01;;;;;;;3.67;3.38;;;23.90;75.00;;;;;;5011178;28;20223;-76
2022/06/22 03:21:27;;;;;;;3.65;3.35;;;23.80;75.00;;;;;;5010630;28;20191;-76
2022/06/22 03:24:29;;;;;;;3.78;3.47;;;23.90;75.00;;;;;;5012552;28;20307;-76
2022/06/22 03:27:03;;;;;;;4.00;3.70;;;23.80;75.00;;;;;;5015206;28;20178;-76
2022/06/22 03:29:41;;;;;;;3.67;3.38;;;23.80;75.00;;;;;;5015404;28;20699;-76
2022/06/22 03:32:32;;;;;;;3.17;2.97;;;23.80;75.00;;;;;;5014838;28;20223;-76
2022/06/22 03:35:14;;;;;;;3.67;3.47;;;23.90;76.00;;;;;;5015082;28;20184;-76
2022/06/22 03:37:49;;;;;;;3.80;3.40;;;23.80;75.00;;;;;;5016147;28;20176;-76
2022/06/22 03:40:32;;;;;;;3.67;3.25;;;23.80;75.10;;;;;;5015149;28;20223;-76
2022/06/22 03:43:28;;;;;;;3.70;3.40;;;23.90;75.10;;;;;;5015236;28;20180;-76
2022/06/22 03:46:05;;;;;;;3.70;3.40;;;23.80;75.00;;;;;;5014647;28;20195;-76
2022/06/22 03:48:42;;;;;;;3.63;3.33;;;23.80;75.10;;;;;;5014739;28;20203;-76
2022/06/22 03:51:24;;;;;;;3.42;3.03;;;23.80;75.00;;;;;;5014107;28;20247;-76
2022/06/22 03:54:26;;;;;;;3.95;3.45;;;23.80;75.10;;;;;;4998182;28;20191;-76
2022/06/22 03:56:59;;;;;;;3.70;3.33;;;23.90;76.10;;;;;;5014264;28;20179;-76
2022/06/22 03:59:26;;;;;;;3.90;3.60;;;23.80;75.00;;;;;;5014399;28;20216;-76
2022/06/22 04:01:56;;;;;;;3.80;3.50;;;23.80;75.20;;;;;;5014148;28;20219;-76
2022/06/22 04:04:23;;;;;;;4.10;3.42;;;23.80;75.10;;;;;;5014356;28;20672;-76
2022/06/22 04:06:54;;;;;;;3.53;3.22;;;23.80;75.30;;;;;;5013553;28;20187;-76
2022/06/22 04:09:26;;;;;;;3.40;3.10;;;23.80;75.30;;;;;;5014627;28;20215;-74
2022/06/22 04:11:57;;;;;;;3.97;3.58;;;23.80;75.20;;;;;;5015013;28;20175;-76
2022/06/22 04:14:38;;;;;;;3.58;3.28;;;23.80;75.30;;;;;;5014568;28;20173;-76
2022/06/22 04:17:22;;;;;;;4.50;3.15;;;23.80;75.20;;;;;;5014205;28;20204;-76
2022/06/22 04:20:13;;;;;;;3.60;3.30;;;23.80;75.30;;;;;;5014106;28;20311;-76
2022/06/22 04:22:44;;;;;;;4.50;3.63;;;23.80;75.50;;;;;;4997575;28;20230;-76
2022/06/22 04:25:36;;;;;;;3.67;3.35;;;23.80;75.40;;;;;;4998626;28;20187;-76
2022/06/22 04:28:08;;;;;;;3.47;3.17;;;23.80;75.50;;;;;;5014099;28;20177;-76
2022/06/22 04:30:44;;;;;;;3.53;3.22;;;23.80;75.70;;;;;;5013444;28;20204;-76
2022/06/22 04:33:47;;;;;;;3.00;2.80;;;23.80;75.50;;;;;;5014149;28;20179;-76
2022/06/22 04:36:26;;;;;;;4.07;3.20;;;23.80;75.40;;;;;;5013765;28;20180;-76
2022/06/22 04:39:04;;;;;;;3.45;3.15;;;23.80;75.70;;;;;;5014921;28;20211;-76
2022/06/22 04:41:38;;;;;;;3.90;3.60;;;23.80;75.50;;;;;;5029668;28;20172;-76
2022/06/22 04:44:12;;;;;;;3.35;3.05;;;23.80;75.70;;;;;;5014961;28;20257;-75
2022/06/22 04:46:44;;;;;;;3.50;3.20;;;23.80;75.80;;;;;;5030629;28;20195;-77
2022/06/22 04:49:30;;;;;;;3.47;3.17;;;23.80;76.00;;;;;;5014113;28;20207;-76
2022/06/22 04:52:26;;;;;;;3.35;3.13;;;23.80;75.90;;;;;;5029575;28;20172;-75
2022/06/22 04:54:58;;;;;;;3.92;3.63;;;23.80;75.70;;;;;;5029960;28;20183;-76
2022/06/22 04:57:29;;;;;;;3.42;3.22;;;23.80;75.90;;;;;;5013805;28;20176;-76
2022/06/22 04:59:55;;;;;;;4.10;3.65;;;23.80;75.80;;;;;;5030413;28;20290;-76
2022/06/22 05:02:28;;;;;;;3.80;3.40;;;23.80;76.00;;;;;;5014079;28;20668;-76
2022/06/22 05:05:05;;;;;;;3.60;3.30;;;23.80;76.10;;;;;;5029877;28;20629;-75
2022/06/22 05:07:54;;;;;;;3.63;3.33;;;23.80;76.20;;;;;;5030126;28;20176;-76
2022/06/22 05:10:48;;;;;;;3.40;3.20;;;23.80;76.30;;;;;;5013196;28;20605;-75
2022/06/22 05:13:23;;;;;;;3.50;3.20;;;23.80;76.00;;;;;;5029766;28;20192;-76
2022/06/22 05:15:56;;;;;;;3.63;3.33;;;23.80;76.20;;;;;;5013044;28;20196;-75
2022/06/22 05:18:28;;;;;;;3.88;3.58;;;23.80;76.30;;;;;;5012877;28;20184;-77
2022/06/22 05:21:19;;;;;;;3.95;3.65;;;23.80;76.30;;;;;;5012443;28;20204;-76
2022/06/22 05:23:54;;;;;;;4.18;3.58;;;23.80;76.50;;;;;;4996700;28;20188;-76
2022/06/22 05:26:24;;;;;;;3.72;3.42;;;23.90;77.20;;;;;;5029530;28;20176;-76
2022/06/22 05:29:16;;;;;;;3.63;3.30;;;23.80;76.60;;;;;;5012953;28;20211;-76
2022/06/22 05:31:58;;;;;;;3.78;3.42;;;23.80;76.70;;;;;;5042481;28;20179;-76
2022/06/22 05:34:31;;;;;;;4.10;3.80;;;23.80;76.20;;;;;;5019029;28;20267;-76
2022/06/22 05:37:19;;;;;;;4.13;3.58;;;23.80;76.50;;;;;;5012744;28;20218;-75
2022/06/22 05:39:46;;;;;;;3.90;3.60;;;23.90;76.80;;;;;;5012989;28;20242;-76
2022/06/22 05:42:15;;;;;;;4.18;3.88;;;23.90;77.20;;;;;;5012920;28;20191;-75
2022/06/22 05:44:43;;;;;;;3.92;3.63;;;23.90;77.20;;;;;;4996346;28;20295;-75
2022/06/22 05:47:18;;;;;;;4.22;3.92;;;23.90;77.10;;;;;;5012723;28;20204;-76
2022/06/22 05:50:32;;;;;;;3.75;3.45;;;23.90;77.10;;;;;;5002525;28;20207;-77
2022/06/22 05:53:25;;;;;;;4.10;3.80;;;23.90;77.30;;;;;;5006286;28;20203;-75
2022/06/22 05:56:17;;;;;;;3.65;3.42;;;24.00;77.20;;;;;;5015500;28;20191;-76
2022/06/22 05:58:57;;;;;;;4.18;3.83;;;23.90;77.40;;;;;;5035646;28;20211;-76
2022/06/22 06:01:48;;;;;;;4.18;3.88;;;23.90;77.40;;;;;;5038565;28;20253;-76
2022/06/22 06:04:18;;;;;;;4.40;4.00;;;23.90;77.90;;;;;;5039719;28;20211;-76
2022/06/22 06:06:45;;;;;;;4.50;4.10;;;23.90;77.80;;;;;;5041621;28;20228;-76
2022/06/22 06:09:19;;;;;;;4.53;4.13;;;23.90;77.50;;;;;;5041879;28;20207;-77
2022/06/22 06:12:02;;;;;;;4.10;3.80;;;23.90;77.60;;;;;;5040982;28;20175;-76
2022/06/22 06:14:39;;;;;;;5.50;4.28;;;23.90;77.90;;;;;;5041063;28;20198;-77
2022/06/22 06:17:24;;;;;;;5.05;4.40;;;23.90;78.00;;;;;;5043500;28;20191;-76
2022/06/22 06:19:53;;;;;;;4.22;3.92;;;23.90;78.20;;;;;;5044346;28;20221;-77
2022/06/22 06:22:22;;;;;;;4.30;4.00;;;23.90;78.80;;;;;;5044916;28;20203;-77
2022/06/22 06:28:20;;;;;;;4.40;4.10;;;23.90;78.20;;;;;;5034661;28;20289;-76
2022/06/22 06:30:59;;;;;;;4.60;4.20;;;23.90;78.10;;;;;;5041429;28;20175;-76
2022/06/22 06:33:34;;;;;;;4.55;4.25;;;23.90;78.40;;;;;;5040601;28;20679;-77
2022/06/22 06:36:15;;;;;;;4.57;4.28;;;23.90;78.70;;;;;;5042599;28;20278;-77
2022/06/22 06:38:51;;;;;;;4.40;4.10;;;23.90;78.60;;;;;;5044495;28;20229;-77
2022/06/22 06:41:23;;;;;;;4.65;4.25;;;23.90;78.60;;;;;;5042833;28;20191;-75
2022/06/22 06:44:00;;;;;;;3.95;3.65;;;23.90;78.80;;;;;;5026828;28;20210;-76
2022/06/22 06:46:38;;;;;;;4.20;3.80;;;23.90;78.90;;;;;;5041958;28;20235;-77
2022/06/22 06:49:28;;;;;;;4.70;4.18;;;23.90;78.60;;;;;;5041031;28;20210;-76
2022/06/22 06:52:30;;;;;;;4.82;3.83;;;24.00;78.90;;;;;;5022252;28;20218;-76
2022/06/22 06:55:18;;;;;;;4.65;4.35;;;23.90;79.00;;;;;;5024382;28;20179;-76
2022/06/22 06:58:13;;;;;;;4.15;3.85;;;23.90;79.10;;;;;;5001535;28;20192;-76
2022/06/22 07:00:41;;;;;;;4.47;4.07;;;24.00;79.10;;;;;;5016335;28;20307;-77
2022/06/22 07:03:21;;;;;;;4.75;4.45;;;23.90;79.00;;;;;;5016668;28;20198;-77
2022/06/22 07:05:49;;;;;;;4.20;3.90;;;23.90;79.00;;;;;;5016400;28;20267;-76
2022/06/22 07:08:19;;;;;;;4.00;3.70;;;24.00;79.10;;;;;;5017046;28;20222;-76
2022/06/22 07:11:03;;;;;;;4.80;4.40;;;24.00;79.20;;;;;;5016059;28;20280;-77
2022/06/22 07:13:48;;;;;;;4.75;4.13;;;23.90;79.10;;;;;;5017633;28;20190;-77
2022/06/22 07:16:20;;;;;;;5.05;4.65;;;23.90;79.20;;;;;;5018344;28;20611;-77
2022/06/22 07:19:37;;;;;;;4.65;4.20;;;24.00;79.40;;;;;;5015113;28;20223;-76
2022/06/22 07:22:36;;;;;;;4.32;4.03;;;24.00;79.30;;;;;;5016278;28;20291;-77
2022/06/22 07:25:22;;;;;;;4.65;4.32;;;24.00;79.20;;;;;;5016442;28;20255;-76
2022/06/22 07:28:37;;;;;;;4.45;4.05;;;24.00;79.30;;;;;;5016975;28;20188;-76
2022/06/22 07:31:15;;;;;;;4.93;4.53;;;24.00;79.30;;;;;;5000141;28;20203;-76
2022/06/22 07:33:54;;;;;;;4.70;4.40;;;24.00;79.60;;;;;;5015643;28;20176;-76
2022/06/22 07:36:48;;;;;;;4.82;4.43;;;24.00;79.60;;;;;;5014885;28;20196;-75
2022/06/22 07:39:44;;;;;;;4.60;4.30;;;24.00;79.60;;;;;;4988108;28;20290;-75
2022/06/22 07:42:13;;;;;;;4.55;4.15;;;24.00;80.00;;;;;;5014781;28;20187;-76
2022/06/22 07:44:41;;;;;;;3.97;3.67;;;24.00;79.70;;;;;;4999160;28;20192;-76
2022/06/22 07:47:26;;;;;;;5.63;5.00;;;24.00;79.80;;;;;;5026165;28;20183;-76
2022/06/22 07:50:03;;;;;;;5.50;4.90;;;24.00;79.80;;;;;;5035363;28;20211;-76
2022/06/22 07:52:45;;;;;;;4.40;4.00;;;24.00;79.90;;;;;;5035048;28;20187;-76
2022/06/22 07:55:40;;;;;;;5.47;4.65;;;24.00;80.00;;;;;;5035343;28;20270;-76
2022/06/22 07:58:31;;;;;;;5.15;4.63;;;24.00;80.20;;;;;;5035025;28;20183;-76
2022/06/22 08:01:08;;;;;;;4.93;4.50;;;24.00;79.70;;;;;;5033503;28;20207;-76
2022/06/22 08:03:51;;;;;;;4.93;4.20;;;24.00;79.90;;;;;;5052618;28;20224;-76
2022/06/22 08:06:35;;;;;;;5.45;4.95;;;24.00;79.80;;;;;;5035768;28;20329;-74
2022/06/22 08:09:12;;;;;;;5.00;4.60;;;24.10;80.30;;;;;;5036574;28;20204;-76
2022/06/22 08:11:55;;;;;;;5.40;4.90;;;24.00;80.00;;;;;;5040083;28;20225;-76
2022/06/22 08:14:40;;;;;;;4.93;4.50;;;24.00;80.30;;;;;;5056377;28;20183;-76
2022/06/22 08:17:23;;;;;;;4.95;4.55;;;24.00;80.20;;;;;;5039427;28;20246;-76
2022/06/22 08:19:49;;;;;;;4.50;4.13;;;24.00;80.50;;;;;;5039418;28;20242;-76
2022/06/22 08:22:15;;;;;;;7.05;4.45;;;24.00;80.50;;;;;;5037987;28;20246;-76
2022/06/22 08:24:50;;;;;;;5.00;4.50;;;24.00;80.50;;;;;;5055332;28;20179;-76
2022/06/22 08:27:20;;;;;;;4.97;4.57;;;24.00;80.80;;;;;;5022369;28;20241;-75
2022/06/22 08:29:49;;;;;;;5.30;4.82;;;24.00;81.00;;;;;;5038525;28;20211;-75
2022/06/22 08:32:34;;;;;;;4.95;4.55;;;24.00;80.90;;;;;;5037406;28;20202;-75
2022/06/22 08:35:16;;;;;;;5.70;5.20;;;24.00;81.10;;;;;;5006173;28;20226;-75
2022/06/22 08:38:29;;;;;;;4.47;4.07;;;24.00;81.30;;;;;;5018841;28;20180;-76
2022/06/22 08:41:32;;;;;;;4.90;4.50;;;24.00;82.00;;;;;;5009011;28;20314;-75
2022/06/22 08:44:34;;;;;;;5.68;5.20;;;24.00;81.20;;;;;;5018222;28;20186;-76
2022/06/22 08:47:27;;;;;;;5.18;4.68;;;24.00;81.40;;;;;;5002243;28;20196;-75
2022/06/22 08:50:29;;;;;;;5.13;4.63;;;24.00;81.20;;;;;;5018070;28;20231;-75
2022/06/22 08:53:07;;;;;;;5.40;4.72;;;24.00;81.40;;;;;;5017416;28;20180;-76
2022/06/22 08:56:02;;;;;;;5.38;4.88;;;24.00;81.30;;;;;;5023165;28;20646;-76
2022/06/22 08:58:49;;;;;;;5.70;5.10;;;24.00;81.40;;;;;;5040128;28;20172;-76
2022/06/22 09:02:05;;;;;;;5.07;4.45;;;24.00;81.40;;;;;;5021351;28;20183;-75
2022/06/22 09:05:20;;;;;;;4.78;4.38;;;24.00;81.10;;;;;;5038468;28;20180;-75
2022/06/22 09:07:56;;;;;;;5.53;4.50;;;24.00;81.40;;;;;;5041765;28;20187;-76
2022/06/22 09:11:23;;;;;;;4.75;4.35;;;24.00;81.50;;;;;;5057314;28;20250;-76
2022/06/22 09:14:01;;;;;;;5.38;4.97;;;24.00;81.20;;;;;;4974607;28;20198;-76
2022/06/22 09:16:59;;;;;;;5.43;4.60;;;24.00;81.40;;;;;;5023085;28;20195;-77
2022/06/22 09:19:46;;;;;;;4.78;4.38;;;24.00;81.50;;;;;;5026537;28;20265;-76
2022/06/22 09:22:48;;;;;;;4.97;4.57;;;24.00;81.60;;;;;;5024676;28;20183;-76
2022/06/22 09:25:47;;;;;;;4.90;4.45;;;24.10;81.30;;;;;;5041541;28;20182;-76
2022/06/22 09:28:38;;;;;;;5.57;4.63;;;24.00;81.40;;;;;;5043162;28;20187;-76
2022/06/22 09:31:51;;;;;;;5.22;4.72;;;24.10;81.50;;;;;;5024127;28;20187;-78
2022/06/22 09:34:57;;;;;;;5.38;4.82;;;24.10;81.10;;;;;;4963935;28;20193;-76
2022/06/22 09:37:57;;;;;;;4.85;4.38;;;24.10;81.50;;;;;;4985151;28;20189;-76
2022/06/22 09:40:41;;;;;;;5.28;4.85;;;24.10;81.40;;;;;;5061053;28;20231;-77
2022/06/22 09:43:22;;;;;;;4.82;4.35;;;24.10;81.90;;;;;;5044222;28;20199;-76
2022/06/22 09:46:30;;;;;;;5.88;4.85;;;24.10;81.80;;;;;;5026945;28;20195;-76
2022/06/22 09:49:23;;;;;;;4.72;4.32;;;24.10;81.50;;;;;;5029435;28;20246;-77
2022/06/22 09:52:09;;;;;;;5.25;4.85;;;24.10;81.80;;;;;;5023602;28;20211;-77
2022/06/22 09:58:31;;;;;;;5.40;4.93;;;24.00;81.80;;;;;;5044388;28;20187;-77
2022/06/22 10:01:08;;;;;;;5.22;4.50;;;24.00;81.80;;;;;;5045013;28;20215;-76
2022/06/22 10:04:15;;;;;;;4.97;4.57;;;24.00;81.90;;;;;;5045441;28;20186;-76
2022/06/22 10:07:18;;;;;;;5.32;4.82;;;24.00;82.30;;;;;;5041952;28;20192;-76
2022/06/22 10:09:59;;;;;;;4.90;4.50;;;24.10;81.90;;;;;;5043194;28;20207;-76
2022/06/22 10:13:02;;;;;;;5.13;4.72;;;24.10;82.20;;;;;;5042042;28;20184;-77
2022/06/22 10:16:00;;;;;;;4.65;4.25;;;24.10;82.20;;;;;;5026634;28;20192;-77
2022/06/22 10:18:50;;;;;;;5.45;4.88;;;24.10;82.70;;;;;;5047604;28;20203;-76
2022/06/22 10:22:12;;;;;;;5.40;4.95;;;24.00;82.70;;;;;;5032084;28;20199;-77
2022/06/22 10:25:09;;;;;;;5.18;4.38;;;24.00;82.60;;;;;;5006568;28;20212;-76
2022/06/22 10:28:10;;;;;;;5.25;4.75;;;24.00;83.20;;;;;;5010339;28;20194;-76
2022/06/22 10:31:01;;;;;;;5.10;4.63;;;24.00;82.90;;;;;;5009768;28;20196;-78
2022/06/22 10:34:23;;;;;;;6.55;4.50;;;24.00;82.90;;;;;;5009962;28;20196;-77
2022/06/22 10:37:33;;;;;;;5.10;4.60;;;24.00;83.10;;;;;;5010079;28;20191;-77
2022/06/22 10:47:05;;;;;;;5.07;4.55;;;24.10;83.60;;;;;;5043742;28;20250;-77
2022/06/22 10:50:03;;;;;;;4.95;4.22;;;24.00;83.10;;;;;;5018380;28;20238;-76
2022/06/22 10:53:16;;;;;;;6.38;4.63;;;24.10;83.00;;;;;;5020780;28;20188;-75
2022/06/22 10:56:04;;;;;;;4.72;4.28;;;24.10;83.60;;;;;;5003555;28;20239;-76
2022/06/22 10:58:54;;;;;;;5.20;4.20;;;24.00;82.90;;;;;;5023009;28;20199;-76
2022/06/22 11:02:14;;;;;;;4.32;3.92;;;24.00;83.00;;;;;;5001888;28;20192;-75
2022/06/22 11:05:07;;;;;;;5.10;4.30;;;24.00;83.10;;;;;;5022761;28;20346;-76
2022/06/22 11:07:48;;;;;;;4.60;4.15;;;24.00;82.80;;;;;;5020788;28;20207;-76
2022/06/22 11:10:44;;;;;;;5.05;4.15;;;24.00;82.70;;;;;;5019394;28;20217;-76
2022/06/22 11:14:01;;;;;;;5.80;4.05;;;24.00;83.00;;;;;;5028433;28;20270;-76
2022/06/22 11:17:04;;;;;;;4.55;4.10;;;24.00;83.10;;;;;;4994252;28;20204;-76
2022/06/22 11:19:58;;;;;;;4.15;3.75;;;24.00;82.90;;;;;;4980666;28;20235;-73
2022/06/22 11:22:37;;;;;;;3.83;3.53;;;24.00;82.90;;;;;;5002529;28;20188;-76
2022/06/22 11:30:48;;;;;;;4.03;3.72;;;24.10;83.10;;;;;;5028010;28;20305;-76
2022/06/22 11:32:03;;;;;;;4.18;3.70;;;24.00;82.80;;;;;;5020194;28;20218;-76
2022/06/22 11:35:08;;;;;;;5.47;3.45;;;24.10;83.00;;;;;;5035537;28;20208;-76
2022/06/22 11:38:26;;;;;;;4.05;3.67;;;24.10;83.20;;;;;;5026490;28;20262;-76
2022/06/22 11:41:10;;;;;;;5.68;3.63;;;24.00;82.70;;;;;;4966626;28;20300;-76
2022/06/22 11:44:09;;;;;;;5.10;3.67;;;24.10;83.10;;;;;;5036297;28;20178;-76
2022/06/22 11:46:49;;;;;;;4.53;4.07;;;24.10;83.00;;;;;;5041046;28;20253;-76
2022/06/22 11:49:33;;;;;;;5.03;3.75;;;24.00;83.10;;;;;;5040470;28;20203;-77
2022/06/22 11:52:39;;;;;;;3.65;3.30;;;24.10;83.00;;;;;;5038179;28;20180;-77
2022/06/22 11:55:22;;;;;;;6.32;3.55;;;24.10;83.20;;;;;;5038766;28;20678;-77
2022/06/22 11:58:12;;;;;;;4.22;3.50;;;24.00;83.10;;;;;;5026507;28;20209;-76
2022/06/22 12:00:49;;;;;;;4.88;3.17;;;24.00;83.50;;;;;;5040118;28;20214;-76
2022/06/22 12:03:32;;;;;;;5.97;3.42;;;24.10;83.30;;;;;;5039023;28;20179;-76
2022/06/22 12:06:06;;;;;;;5.47;4.20;;;24.10;83.30;;;;;;5040801;28;20186;-76
2022/06/22 12:08:32;;;;;;;4.15;3.28;;;24.10;83.20;;;;;;5056361;28;20202;-76
2022/06/22 12:11:32;;;;;;;5.13;3.70;;;24.10;83.60;;;;;;5039711;28;20193;-77
2022/06/22 12:15:09;;;;;;;6.30;3.65;;;24.10;83.80;;;;;;5037890;28;20180;-76
2022/06/22 12:18:18;;;;;;;5.30;3.60;;;24.10;84.10;;;;;;4969237;28;20210;-76
2022/06/22 12:21:16;;;;;;;5.63;3.67;;;24.10;83.70;;;;;;5020621;28;20269;-76
2022/06/22 12:24:07;;;;;;;7.25;3.70;;;24.10;83.60;;;;;;5004158;28;20242;-76
2022/06/22 12:27:00;;;;;;;4.38;3.47;;;24.10;84.40;;;;;;5020954;28;20176;-76
2022/06/22 12:30:05;;;;;;;4.30;3.50;;;24.10;84.00;;;;;;5005044;28;20218;-77
2022/06/22 12:32:55;;;;;;;4.18;3.08;;;24.10;83.80;;;;;;5020061;28;20192;-76
2022/06/22 12:35:52;;;;;;;4.05;3.13;;;24.10;84.40;;;;;;5005290;28;20195;-76
2022/06/22 12:38:40;;;;;;;5.15;2.97;;;24.10;84.60;;;;;;5005470;28;20246;-76
2022/06/22 12:41:39;;;;;;;4.28;3.22;;;24.10;84.40;;;;;;5020983;28;20218;-76
2022/06/22 12:44:33;;;;;;;5.78;3.28;;;24.10;83.90;;;;;;5021581;28;20216;-77
2022/06/22 12:47:29;;;;;;;3.85;3.45;;;24.10;83.80;;;;;;5005416;28;20173;-76
2022/06/22 12:50:21;;;;;;;4.53;3.35;;;24.10;84.10;;;;;;5005628;28;20219;-76
2022/06/22 12:53:05;;;;;;;5.60;3.33;;;24.10;84.00;;;;;;5022964;28;20206;-76
2022/06/22 12:55:55;;;;;;;5.25;3.35;;;24.10;83.70;;;;;;5041979;28;20210;-77
2022/06/22 12:58:36;;;;;;;5.63;2.97;;;24.10;83.80;;;;;;5025595;28;20268;-76
2022/06/22 13:01:05;;;;;;;5.78;3.25;;;24.10;84.00;;;;;;5022171;28;20612;-76
2022/06/22 13:03:47;;;;;;;4.43;3.25;;;24.10;84.10;;;;;;5005026;28;20191;-76
2022/06/22 13:06:13;;;;;;;3.45;3.15;;;24.10;85.00;;;;;;5021621;28;20180;-76
2022/06/22 13:08:40;;;;;;;5.20;3.25;;;24.10;84.80;;;;;;5021921;28;20207;-76
2022/06/22 13:11:17;;;;;;;6.68;3.42;;;24.10;84.80;;;;;;5004519;28;20270;-76
2022/06/22 13:14:01;;;;;;;5.10;3.33;;;24.10;85.20;;;;;;5029822;28;20233;-76
2022/06/22 13:16:38;;;;;;;3.42;2.95;;;24.10;85.20;;;;;;5040402;28;20183;-77
2022/06/22 13:19:16;;;;;;;3.80;3.00;;;24.10;84.40;;;;;;5036850;28;20228;-75
2022/06/22 13:22:02;;;;;;;4.32;2.80;;;24.10;84.40;;;;;;5034799;28;20264;-74
2022/06/22 13:24:57;;;;;;;8.45;3.45;;;24.10;87.50;;;;;;5034468;28;20662;-75
2022/06/22 13:28:03;;;;;;;5.18;3.28;;;24.10;85.20;;;;;;5034146;28;20179;-75
2022/06/22 13:30:55;;;;;;;5.32;3.33;;;24.10;84.70;;;;;;5034792;28;20211;-75
2022/06/22 13:33:55;;;;;;;3.80;2.75;;;24.10;85.00;;;;;;5033873;28;20175;-75
2022/06/22 13:36:32;;;;;;;5.35;2.83;;;24.20;85.10;;;;;;5033987;28;20179;-75
2022/06/22 13:39:13;;;;;;;6.03;2.83;;;24.10;84.70;;;;;;5035340;28;20214;-75
2022/06/22 13:42:40;;;;;;;5.28;3.20;;;24.10;85.20;;;;;;5034771;28;20191;-75
2022/06/22 13:45:08;;;;;;;3.97;2.78;;;24.20;85.30;;;;;;5014954;28;20226;-75
2022/06/22 13:48:03;;;;;;;5.47;2.97;;;24.10;85.10;;;;;;5019297;28;20183;-78
2022/06/22 13:51:20;;;;;;;5.97;3.08;;;24.20;85.40;;;;;;5007308;28;20219;-76
2022/06/22 13:54:27;;;;;;;5.15;2.90;;;24.10;85.00;;;;;;5034883;28;20187;-75
2022/06/22 13:56:54;;;;;;;4.72;2.97;;;24.10;84.90;;;;;;5035053;28;20273;-76
2022/06/22 13:59:54;;;;;;;4.50;2.88;;;24.20;85.10;;;;;;5019574;28;20350;-76
2022/06/22 14:02:58;;;;;;;5.28;2.75;;;24.20;85.30;;;;;;5019355;28;20183;-75
2022/06/22 14:05:55;;;;;;;4.60;2.97;;;24.10;85.20;;;;;;5024568;28;20188;-76
2022/06/22 14:09:01;;;;;;;5.22;2.97;;;24.10;85.20;;;;;;4997102;28;20647;-76
2022/06/22 14:12:03;;;;;;;7.55;3.30;;;24.20;86.20;;;;;;5049085;28;20180;-78
2022/06/22 14:14:49;;;;;;;7.68;3.22;;;24.20;85.30;;;;;;5000472;28;20191;-76
2022/06/22 14:17:28;;;;;;;5.65;3.03;;;24.10;85.20;;;;;;5027973;28;20183;-77
2022/06/22 14:20:36;;;;;;;8.32;3.28;;;24.10;84.70;;;;;;5035079;28;20241;-76
2022/06/22 14:23:06;;;;;;;4.68;2.83;;;24.10;84.60;;;;;;5034485;28;20600;-76
2022/06/22 14:26:00;;;;;;;7.10;3.22;;;24.10;85.20;;;;;;5036775;28;20647;-75
2022/06/22 14:28:53;;;;;;;6.15;3.05;;;24.10;85.20;;;;;;5053989;28;20176;-76
2022/06/22 14:31:37;;;;;;;3.70;2.60;;;24.10;85.20;;;;;;5038234;28;20195;-76
2022/06/22 14:34:19;;;;;;;4.78;2.85;;;24.10;84.70;;;;;;5038616;28;20205;-76
2022/06/22 14:36:58;;;;;;;6.80;3.15;;;24.10;85.00;;;;;;5039416;28;20195;-76
2022/06/22 14:39:33;;;;;;;7.10;3.50;;;24.10;85.20;;;;;;5036021;28;20238;-76
2022/06/22 14:42:21;;;;;;;4.45;2.95;;;24.10;85.20;;;;;;5036154;28;20183;-75
2022/06/22 14:45:13;;;;;;;8.43;3.47;;;24.10;85.00;;;;;;5041460;28;20199;-74